aviador You're here:

RKJK Decoded Metar

KUNSAN in KOREA
Report Time2017-09-20 11:58:00
UTC Time2017-09-20 12:55:10
Flight Rules vfr VFR
Wind330° at 04 kt
W.Decomp.*RWY 36: 3.7 kt HW 1.6 kt LCW
W.Rank330° ranks 1
Current wind is below 330° avg. (9.4)
Visibility9999 m
Phenomena:N/A
Clouds:N/A
Expected CloudBase > 2,000 ft AGL from Temp-Dew spread
CeilingNone
Temp17°C (ISA +2)
Dew Point12°C (73% RH)
AAT16.2°C
QNH1014 hPa
Density Alt427 ft
Elevation30 ft
Report Wrong Elevation
Raw Report
RKJK 201158Z AUTO 33004KT 10SM CLR 17/12 A2995 RMK AO2 SLP146
T01650124 10234 20165 53011 $=

Extra information for RKJK:More info

Metar Taf Metar & Taf Last 4 Metars F.Rules Stats Wind Profile Meteogram Temp Stats Airport Information Weather charts Add Link Nearby VenuesMetar ALERT Operation Metar Decoded Social comments